sensor_id;sensor_type;location;lat;lon;timestamp;pressure;altitude;pressure_sealevel;temperature;humidity
17230;BME280;8731;50.364;8.958;2022-09-09T00:03:40;99555.00;;;17.91;78.19
17230;BME280;8731;50.364;8.958;2022-09-09T00:08:16;99543.69;;;17.72;78.88
17230;BME280;8731;50.364;8.958;2022-09-09T00:12:50;99555.63;;;17.87;78.99
17230;BME280;8731;50.364;8.958;2022-09-09T00:17:31;99551.78;;;17.64;77.03
17230;BME280;8731;50.364;8.958;2022-09-09T00:22:06;99562.69;;;17.43;77.76
17230;BME280;8731;50.364;8.958;2022-09-09T00:26:41;99546.88;;;17.52;77.05
17230;BME280;8731;50.364;8.958;2022-09-09T00:31:11;99544.88;;;17.63;78.14
17230;BME280;8731;50.364;8.958;2022-09-09T00:35:38;99535.56;;;17.34;75.64
17230;BME280;8731;50.364;8.958;2022-09-09T00:40:18;99533.53;;;17.28;80.06
17230;BME280;8731;50.364;8.958;2022-09-09T00:44:58;99531.16;;;17.47;76.43
17230;BME280;8731;50.364;8.958;2022-09-09T00:49:36;99525.13;;;17.47;78.63
17230;BME280;8731;50.364;8.958;2022-09-09T00:54:26;99529.63;;;17.20;74.32
17230;BME280;8731;50.364;8.958;2022-09-09T00:59:00;99531.31;;;17.50;76.84
17230;BME280;8731;50.364;8.958;2022-09-09T01:03:37;99539.94;;;17.51;78.06
17230;BME280;8731;50.364;8.958;2022-09-09T01:08:14;99541.53;;;17.49;78.05
17230;BME280;8731;50.364;8.958;2022-09-09T01:13:02;99550.91;;;17.32;79.16
17230;BME280;8731;50.364;8.958;2022-09-09T01:17:34;99545.53;;;17.28;79.44
17230;BME280;8731;50.364;8.958;2022-09-09T01:22:12;99539.66;;;17.30;79.19
17230;BME280;8731;50.364;8.958;2022-09-09T01:26:46;99549.44;;;17.06;81.55
17230;BME280;8731;50.364;8.958;2022-09-09T01:31:20;99549.97;;;17.01;80.77
17230;BME280;8731;50.364;8.958;2022-09-09T01:35:52;99547.94;;;16.95;80.77
17230;BME280;8731;50.364;8.958;2022-09-09T01:40:27;99544.31;;;16.77;75.49
17230;BME280;8731;50.364;8.958;2022-09-09T01:45:32;99545.28;;;16.94;78.91
17230;BME280;8731;50.364;8.958;2022-09-09T01:50:10;99546.38;;;16.82;78.48
17230;BME280;8731;50.364;8.958;2022-09-09T01:54:36;99542.91;;;16.82;78.61
17230;BME280;8731;50.364;8.958;2022-09-09T02:04:27;99548.06;;;16.82;79.64
17230;BME280;8731;50.364;8.958;2022-09-09T02:09:07;99548.47;;;16.75;80.33
17230;BME280;8731;50.364;8.958;2022-09-09T02:13:39;99545.91;;;16.75;80.25
17230;BME280;8731;50.364;8.958;2022-09-09T02:18:08;99552.09;;;16.64;81.43
17230;BME280;8731;50.364;8.958;2022-09-09T02:22:38;99553.84;;;16.50;82.10
17230;BME280;8731;50.364;8.958;2022-09-09T02:27:07;99544.72;;;16.40;83.12
17230;BME280;8731;50.364;8.958;2022-09-09T02:31:34;99543.16;;;16.14;85.55
17230;BME280;8731;50.364;8.958;2022-09-09T02:36:03;99554.72;;;16.36;82.86
17230;BME280;8731;50.364;8.958;2022-09-09T02:40:30;99558.84;;;16.19;84.84
17230;BME280;8731;50.364;8.958;2022-09-09T02:44:56;99553.56;;;16.03;86.03
17230;BME280;8731;50.364;8.958;2022-09-09T02:49:25;99548.56;;;16.19;83.07
17230;BME280;8731;50.364;8.958;2022-09-09T02:53:59;99539.44;;;16.09;84.35
17230;BME280;8731;50.364;8.958;2022-09-09T02:58:32;99533.19;;;16.06;84.73
17230;BME280;8731;50.364;8.958;2022-09-09T03:02:59;99526.28;;;16.05;84.85
17230;BME280;8731;50.364;8.958;2022-09-09T03:07:22;99529.25;;;16.11;84.53
17230;BME280;8731;50.364;8.958;2022-09-09T03:11:46;99535.53;;;16.16;84.79
17230;BME280;8731;50.364;8.958;2022-09-09T03:16:11;99533.69;;;16.13;85.02
17230;BME280;8731;50.364;8.958;2022-09-09T03:20:38;99526.94;;;16.15;84.47
17230;BME280;8731;50.364;8.958;2022-09-09T03:25:02;99537.06;;;15.99;81.03
17230;BME280;8731;50.364;8.958;2022-09-09T03:29:26;99523.81;;;16.06;85.29
17230;BME280;8731;50.364;8.958;2022-09-09T03:33:53;99526.47;;;16.08;84.29
17230;BME280;8731;50.364;8.958;2022-09-09T03:38:15;99522.75;;;16.03;80.30
17230;BME280;8731;50.364;8.958;2022-09-09T03:42:38;99521.91;;;16.17;84.62
17230;BME280;8731;50.364;8.958;2022-09-09T03:47:01;99517.47;;;16.14;86.70
17230;BME280;8731;50.364;8.958;2022-09-09T03:51:25;99515.31;;;16.07;86.23
17230;BME280;8731;50.364;8.958;2022-09-09T03:55:50;99520.53;;;16.09;86.01
17230;BME280;8731;50.364;8.958;2022-09-09T04:00:15;99516.75;;;16.17;84.34
17230;BME280;8731;50.364;8.958;2022-09-09T04:04:43;99528.22;;;16.09;86.37
17230;BME280;8731;50.364;8.958;2022-09-09T04:09:06;99522.19;;;15.93;87.98
17230;BME280;8731;50.364;8.958;2022-09-09T04:13:29;99519.38;;;16.04;87.42
17230;BME280;8731;50.364;8.958;2022-09-09T04:17:52;99530.00;;;15.95;87.28
17230;BME280;8731;50.364;8.958;2022-09-09T04:22:14;99522.03;;;16.05;86.20
17230;BME280;8731;50.364;8.958;2022-09-09T04:26:38;99522.22;;;15.80;83.31
17230;BME280;8731;50.364;8.958;2022-09-09T04:31:05;99523.91;;;15.80;89.77
17230;BME280;8731;50.364;8.958;2022-09-09T04:35:30;99530.00;;;15.95;88.34
17230;BME280;8731;50.364;8.958;2022-09-09T04:39:52;99536.00;;;15.95;88.27
17230;BME280;8731;50.364;8.958;2022-09-09T04:44:16;99526.53;;;15.94;88.48
17230;BME280;8731;50.364;8.958;2022-09-09T04:48:39;99530.81;;;15.81;90.38
17230;BME280;8731;50.364;8.958;2022-09-09T04:53:03;99527.25;;;15.79;90.63
17230;BME280;8731;50.364;8.958;2022-09-09T04:57:27;99536.63;;;15.91;89.06
17230;BME280;8731;50.364;8.958;2022-09-09T05:01:54;99539.38;;;15.94;88.40
17230;BME280;8731;50.364;8.958;2022-09-09T05:06:17;99541.50;;;16.02;87.25
17230;BME280;8731;50.364;8.958;2022-09-09T05:10:43;99532.03;;;16.01;89.11
17230;BME280;8731;50.364;8.958;2022-09-09T05:15:07;99544.88;;;16.01;88.78
17230;BME280;8731;50.364;8.958;2022-09-09T05:19:33;99552.16;;;16.08;86.72
17230;BME280;8731;50.364;8.958;2022-09-09T05:23:56;99552.72;;;16.17;86.08
17230;BME280;8731;50.364;8.958;2022-09-09T05:28:18;99550.50;;;16.23;86.36
17230;BME280;8731;50.364;8.958;2022-09-09T05:32:41;99556.00;;;16.29;86.49
17230;BME280;8731;50.364;8.958;2022-09-09T05:37:06;99566.19;;;16.27;86.76
17230;BME280;8731;50.364;8.958;2022-09-09T05:41:31;99567.09;;;16.28;88.49
17230;BME280;8731;50.364;8.958;2022-09-09T05:45:59;99565.03;;;16.22;85.24
17230;BME280;8731;50.364;8.958;2022-09-09T05:50:24;99580.06;;;16.44;87.59
17230;BME280;8731;50.364;8.958;2022-09-09T05:54:48;99582.38;;;16.54;88.30
17230;BME280;8731;50.364;8.958;2022-09-09T05:59:10;99588.22;;;16.52;86.60
17230;BME280;8731;50.364;8.958;2022-09-09T06:03:34;99586.72;;;16.55;88.09
17230;BME280;8731;50.364;8.958;2022-09-09T06:07:57;99595.59;;;16.61;85.60
17230;BME280;8731;50.364;8.958;2022-09-09T06:12:20;99596.41;;;16.60;82.94
17230;BME280;8731;50.364;8.958;2022-09-09T06:16:43;99593.53;;;16.83;87.40
17230;BME280;8731;50.364;8.958;2022-09-09T06:21:18;99597.34;;;16.90;85.96
17230;BME280;8731;50.364;8.958;2022-09-09T06:25:42;99602.22;;;17.14;85.40
17230;BME280;8731;50.364;8.958;2022-09-09T06:30:07;99601.91;;;17.25;85.60
17230;BME280;8731;50.364;8.958;2022-09-09T06:34:31;99604.69;;;17.28;84.76
17230;BME280;8731;50.364;8.958;2022-09-09T06:38:54;99595.00;;;17.24;82.96
17230;BME280;8731;50.364;8.958;2022-09-09T06:43:17;99591.59;;;17.54;85.35
17230;BME280;8731;50.364;8.958;2022-09-09T06:47:44;99595.63;;;17.65;85.70
17230;BME280;8731;50.364;8.958;2022-09-09T06:52:08;99603.22;;;17.47;83.49
17230;BME280;8731;50.364;8.958;2022-09-09T06:56:32;99601.00;;;17.68;84.98
17230;BME280;8731;50.364;8.958;2022-09-09T07:01:03;99601.84;;;17.84;83.48
17230;BME280;8731;50.364;8.958;2022-09-09T07:05:29;99598.16;;;18.11;84.30
17230;BME280;8731;50.364;8.958;2022-09-09T07:09:52;99602.84;;;18.34;82.16
17230;BME280;8731;50.364;8.958;2022-09-09T07:14:15;99602.34;;;18.58;82.09
17230;BME280;8731;50.364;8.958;2022-09-09T07:18:41;99600.25;;;18.83;81.55
17230;BME280;8731;50.364;8.958;2022-09-09T07:23:05;99604.72;;;19.04;80.44
17230;BME280;8731;50.364;8.958;2022-09-09T07:27:28;99605.56;;;19.20;79.95
17230;BME280;8731;50.364;8.958;2022-09-09T07:31:50;99602.31;;;19.42;79.91
17230;BME280;8731;50.364;8.958;2022-09-09T07:36:19;99613.31;;;19.20;78.38
17230;BME280;8731;50.364;8.958;2022-09-09T07:40:45;99606.34;;;19.01;77.97
17230;BME280;8731;50.364;8.958;2022-09-09T07:45:07;99609.16;;;19.24;78.40
17230;BME280;8731;50.364;8.958;2022-09-09T07:49:30;99616.63;;;19.18;78.18
17230;BME280;8731;50.364;8.958;2022-09-09T07:53:55;99624.50;;;19.21;75.83
17230;BME280;8731;50.364;8.958;2022-09-09T07:58:20;99615.22;;;19.24;77.86
17230;BME280;8731;50.364;8.958;2022-09-09T08:02:43;99620.41;;;19.08;77.11
17230;BME280;8731;50.364;8.958;2022-09-09T08:07:06;99632.03;;;19.34;77.91
17230;BME280;8731;50.364;8.958;2022-09-09T08:11:37;99636.75;;;19.25;78.04
17230;BME280;8731;50.364;8.958;2022-09-09T08:16:07;99629.09;;;19.26;77.71
17230;BME280;8731;50.364;8.958;2022-09-09T08:20:32;99634.00;;;19.04;75.74
17230;BME280;8731;50.364;8.958;2022-09-09T08:24:56;99637.03;;;19.31;76.78
17230;BME280;8731;50.364;8.958;2022-09-09T08:29:20;99642.97;;;19.12;76.57
17230;BME280;8731;50.364;8.958;2022-09-09T08:33:44;99651.34;;;19.24;76.78
17230;BME280;8731;50.364;8.958;2022-09-09T08:38:06;99651.75;;;19.16;76.90
17230;BME280;8731;50.364;8.958;2022-09-09T08:42:35;99653.00;;;19.06;76.20
17230;BME280;8731;50.364;8.958;2022-09-09T08:47:07;99648.84;;;19.26;75.87
17230;BME280;8731;50.364;8.958;2022-09-09T08:51:39;99649.44;;;19.20;75.56
17230;BME280;8731;50.364;8.958;2022-09-09T08:56:09;99634.28;;;19.44;75.66
17230;BME280;8731;50.364;8.958;2022-09-09T09:00:44;99631.47;;;19.57;74.60
17230;BME280;8731;50.364;8.958;2022-09-09T09:05:26;99636.72;;;19.59;74.47
17230;BME280;8731;50.364;8.958;2022-09-09T09:10:00;99638.06;;;19.69;73.27
17230;BME280;8731;50.364;8.958;2022-09-09T09:14:34;99634.06;;;19.93;73.52
17230;BME280;8731;50.364;8.958;2022-09-09T09:19:00;99638.13;;;20.07;72.49
17230;BME280;8731;50.364;8.958;2022-09-09T09:23:30;99643.19;;;20.04;71.62
17230;BME280;8731;50.364;8.958;2022-09-09T09:28:08;99646.13;;;20.31;71.13
17230;BME280;8731;50.364;8.958;2022-09-09T09:32:39;99634.31;;;20.36;70.75
17230;BME280;8731;50.364;8.958;2022-09-09T09:37:12;99645.03;;;20.26;69.58
17230;BME280;8731;50.364;8.958;2022-09-09T09:41:41;99635.34;;;20.40;70.00
17230;BME280;8731;50.364;8.958;2022-09-09T09:46:19;99648.31;;;20.59;70.41
17230;BME280;8731;50.364;8.958;2022-09-09T09:50:49;99651.91;;;20.43;74.26
17230;BME280;8731;50.364;8.958;2022-09-09T09:55:14;99644.47;;;20.51;73.32
17230;BME280;8731;50.364;8.958;2022-09-09T09:59:40;99663.94;;;20.43;73.21
17230;BME280;8731;50.364;8.958;2022-09-09T10:04:17;99675.31;;;19.91;76.50
17230;BME280;8731;50.364;8.958;2022-09-09T10:08:46;99666.34;;;20.20;76.77
17230;BME280;8731;50.364;8.958;2022-09-09T10:13:11;99665.25;;;19.44;72.04
17230;BME280;8731;50.364;8.958;2022-09-09T10:17:48;99654.47;;;16.15;100.00
17230;BME280;8731;50.364;8.958;2022-09-09T10:22:25;99652.00;;;16.16;100.00
17230;BME280;8731;50.364;8.958;2022-09-09T10:26:51;99641.91;;;17.49;99.63
17230;BME280;8731;50.364;8.958;2022-09-09T10:31:25;99641.66;;;18.21;93.88
17230;BME280;8731;50.364;8.958;2022-09-09T10:36:04;99640.56;;;18.81;88.37
17230;BME280;8731;50.364;8.958;2022-09-09T10:40:38;99656.03;;;18.97;86.50
17230;BME280;8731;50.364;8.958;2022-09-09T10:45:15;99645.94;;;19.02;84.23
17230;BME280;8731;50.364;8.958;2022-09-09T10:49:53;99637.69;;;18.75;86.54
17230;BME280;8731;50.364;8.958;2022-09-09T10:54:45;99629.06;;;18.92;84.41
17230;BME280;8731;50.364;8.958;2022-09-09T10:59:20;99625.38;;;19.39;84.13
17230;BME280;8731;50.364;8.958;2022-09-09T11:03:52;99621.78;;;18.84;87.00
17230;BME280;8731;50.364;8.958;2022-09-09T11:08:19;99619.34;;;18.87;86.72
17230;BME280;8731;50.364;8.958;2022-09-09T11:12:45;99629.53;;;18.67;88.46
17230;BME280;8731;50.364;8.958;2022-09-09T11:17:16;99622.66;;;18.84;88.00
17230;BME280;8731;50.364;8.958;2022-09-09T11:21:44;99622.47;;;18.97;86.68
17230;BME280;8731;50.364;8.958;2022-09-09T11:26:11;99626.84;;;18.98;87.12
17230;BME280;8731;50.364;8.958;2022-09-09T11:30:48;99622.81;;;18.87;85.49
17230;BME280;8731;50.364;8.958;2022-09-09T11:35:29;99632.25;;;18.87;81.29
17230;BME280;8731;50.364;8.958;2022-09-09T11:40:17;99622.50;;;19.15;80.81
17230;BME280;8731;50.364;8.958;2022-09-09T11:44:42;99623.94;;;19.80;80.95
17230;BME280;8731;50.364;8.958;2022-09-09T11:49:05;99613.88;;;20.60;77.56
17230;BME280;8731;50.364;8.958;2022-09-09T11:53:50;99605.91;;;20.76;73.32
17230;BME280;8731;50.364;8.958;2022-09-09T11:58:16;99609.34;;;21.36;72.65
17230;BME280;8731;50.364;8.958;2022-09-09T12:02:48;99608.41;;;20.94;73.93
17230;BME280;8731;50.364;8.958;2022-09-09T12:07:27;99598.66;;;21.08;73.01
17230;BME280;8731;50.364;8.958;2022-09-09T12:12:07;99599.53;;;21.29;72.96
17230;BME280;8731;50.364;8.958;2022-09-09T12:16:49;99590.41;;;21.60;71.70
17230;BME280;8731;50.364;8.958;2022-09-09T12:21:18;99588.34;;;21.51;70.00
17230;BME280;8731;50.364;8.958;2022-09-09T12:25:59;99584.69;;;21.46;69.78
17230;BME280;8731;50.364;8.958;2022-09-09T12:30:47;99571.50;;;21.40;70.82
17230;BME280;8731;50.364;8.958;2022-09-09T12:35:20;99581.22;;;21.45;69.78
17230;BME280;8731;50.364;8.958;2022-09-09T12:39:50;99569.97;;;21.67;70.34
17230;BME280;8731;50.364;8.958;2022-09-09T12:44:15;99562.13;;;21.43;70.38
17230;BME280;8731;50.364;8.958;2022-09-09T12:48:40;99565.72;;;21.69;71.00
17230;BME280;8731;50.364;8.958;2022-09-09T12:53:06;99564.78;;;21.90;69.88
17230;BME280;8731;50.364;8.958;2022-09-09T12:57:34;99563.31;;;21.52;65.75
17230;BME280;8731;50.364;8.958;2022-09-09T13:01:58;99561.81;;;21.79;67.34
17230;BME280;8731;50.364;8.958;2022-09-09T13:06:24;99565.16;;;21.54;65.02
17230;BME280;8731;50.364;8.958;2022-09-09T13:10:50;99560.53;;;21.47;65.29
17230;BME280;8731;50.364;8.958;2022-09-09T13:15:23;99566.44;;;21.43;64.51
17230;BME280;8731;50.364;8.958;2022-09-09T13:19:48;99569.78;;;21.40;64.17
17230;BME280;8731;50.364;8.958;2022-09-09T13:24:26;99552.88;;;21.50;64.75
17230;BME280;8731;50.364;8.958;2022-09-09T13:28:53;99564.53;;;21.18;64.62
17230;BME280;8731;50.364;8.958;2022-09-09T13:33:21;99556.97;;;21.02;66.77
17230;BME280;8731;50.364;8.958;2022-09-09T13:37:44;99563.09;;;20.83;68.84
17230;BME280;8731;50.364;8.958;2022-09-09T13:42:22;99560.13;;;20.95;69.70
17230;BME280;8731;50.364;8.958;2022-09-09T13:46:47;99564.06;;;21.06;70.14
17230;BME280;8731;50.364;8.958;2022-09-09T13:51:29;99564.03;;;21.48;68.27
17230;BME280;8731;50.364;8.958;2022-09-09T13:55:57;99564.63;;;21.63;65.83
17230;BME280;8731;50.364;8.958;2022-09-09T14:00:23;99567.38;;;21.45;63.10
17230;BME280;8731;50.364;8.958;2022-09-09T14:04:46;99564.44;;;21.36;63.03
17230;BME280;8731;50.364;8.958;2022-09-09T14:09:12;99561.81;;;21.57;63.41
17230;BME280;8731;50.364;8.958;2022-09-09T14:13:36;99555.91;;;21.61;63.82
17230;BME280;8731;50.364;8.958;2022-09-09T14:18:00;99543.41;;;21.51;63.05
17230;BME280;8731;50.364;8.958;2022-09-09T14:22:22;99568.72;;;21.35;62.94
17230;BME280;8731;50.364;8.958;2022-09-09T14:26:45;99558.31;;;21.34;62.13
17230;BME280;8731;50.364;8.958;2022-09-09T14:31:08;99553.56;;;21.24;61.90
17230;BME280;8731;50.364;8.958;2022-09-09T14:35:31;99560.34;;;21.22;61.35
17230;BME280;8731;50.364;8.958;2022-09-09T14:39:57;99569.28;;;21.28;60.67
17230;BME280;8731;50.364;8.958;2022-09-09T14:44:19;99566.63;;;20.85;60.95
17230;BME280;8731;50.364;8.958;2022-09-09T14:48:42;99566.47;;;21.03;61.28
17230;BME280;8731;50.364;8.958;2022-09-09T14:53:06;99564.53;;;20.76;61.50
17230;BME280;8731;50.364;8.958;2022-09-09T14:57:30;99559.28;;;20.96;61.33
17230;BME280;8731;50.364;8.958;2022-09-09T15:01:53;99562.75;;;20.75;62.01
17230;BME280;8731;50.364;8.958;2022-09-09T15:06:15;99543.81;;;20.76;62.29
17230;BME280;8731;50.364;8.958;2022-09-09T15:10:39;99546.59;;;20.60;62.74
17230;BME280;8731;50.364;8.958;2022-09-09T15:15:02;99553.72;;;20.66;63.14
17230;BME280;8731;50.364;8.958;2022-09-09T15:19:25;99558.56;;;20.58;63.41
17230;BME280;8731;50.364;8.958;2022-09-09T15:23:48;99545.00;;;20.43;63.67
17230;BME280;8731;50.364;8.958;2022-09-09T15:28:12;99545.44;;;20.53;63.87
17230;BME280;8731;50.364;8.958;2022-09-09T15:32:34;99543.44;;;20.67;64.31
17230;BME280;8731;50.364;8.958;2022-09-09T15:36:57;99539.66;;;20.59;64.13
17230;BME280;8731;50.364;8.958;2022-09-09T15:41:21;99539.16;;;20.68;63.92
17230;BME280;8731;50.364;8.958;2022-09-09T15:45:46;99540.00;;;20.88;63.54
17230;BME280;8731;50.364;8.958;2022-09-09T15:50:15;99549.94;;;20.78;64.56
17230;BME280;8731;50.364;8.958;2022-09-09T15:54:37;99548.81;;;20.72;63.52
17230;BME280;8731;50.364;8.958;2022-09-09T15:59:01;99552.13;;;20.89;63.45
17230;BME280;8731;50.364;8.958;2022-09-09T16:03:25;99547.88;;;20.70;63.29
17230;BME280;8731;50.364;8.958;2022-09-09T16:07:47;99542.88;;;20.74;63.33
17230;BME280;8731;50.364;8.958;2022-09-09T16:12:09;99545.34;;;20.71;63.65
17230;BME280;8731;50.364;8.958;2022-09-09T16:16:33;99548.22;;;20.58;64.23
17230;BME280;8731;50.364;8.958;2022-09-09T16:20:58;99543.47;;;20.48;64.31
17230;BME280;8731;50.364;8.958;2022-09-09T16:25:20;99541.97;;;20.53;64.83
17230;BME280;8731;50.364;8.958;2022-09-09T16:29:42;99546.53;;;20.39;65.06
17230;BME280;8731;50.364;8.958;2022-09-09T16:34:05;99547.22;;;20.16;65.53
17230;BME280;8731;50.364;8.958;2022-09-09T16:38:29;99550.31;;;20.09;65.16
17230;BME280;8731;50.364;8.958;2022-09-09T16:42:51;99547.97;;;20.13;65.94
17230;BME280;8731;50.364;8.958;2022-09-09T16:47:15;99550.06;;;20.03;66.38
17230;BME280;8731;50.364;8.958;2022-09-09T16:51:39;99564.34;;;19.95;67.07
17230;BME280;8731;50.364;8.958;2022-09-09T16:56:06;99564.25;;;19.74;67.35
17230;BME280;8731;50.364;8.958;2022-09-09T17:00:29;99563.69;;;19.81;67.53
17230;BME280;8731;50.364;8.958;2022-09-09T17:04:51;99575.69;;;19.61;67.60
17230;BME280;8731;50.364;8.958;2022-09-09T17:09:14;99580.03;;;19.80;68.78
17230;BME280;8731;50.364;8.958;2022-09-09T17:13:37;99576.22;;;19.72;69.96
17230;BME280;8731;50.364;8.958;2022-09-09T17:18:00;99578.94;;;19.75;69.07
17230;BME280;8731;50.364;8.958;2022-09-09T17:22:22;99587.63;;;19.77;68.91
17230;BME280;8731;50.364;8.958;2022-09-09T17:26:46;99586.00;;;19.79;69.61
17230;BME280;8731;50.364;8.958;2022-09-09T17:31:11;99598.13;;;19.44;71.11
17230;BME280;8731;50.364;8.958;2022-09-09T17:35:35;99603.28;;;19.44;70.61
17230;BME280;8731;50.364;8.958;2022-09-09T17:39:57;99608.44;;;19.44;70.72
17230;BME280;8731;50.364;8.958;2022-09-09T17:44:20;99604.03;;;19.42;70.37
17230;BME280;8731;50.364;8.958;2022-09-09T17:48:44;99612.13;;;19.31;71.01
17230;BME280;8731;50.364;8.958;2022-09-09T17:53:06;99606.22;;;19.34;71.08
17230;BME280;8731;50.364;8.958;2022-09-09T17:57:28;99614.09;;;19.37;71.09
17230;BME280;8731;50.364;8.958;2022-09-09T18:01:51;99601.78;;;19.31;72.18
17230;BME280;8731;50.364;8.958;2022-09-09T18:06:18;99603.03;;;19.40;72.22
17230;BME280;8731;50.364;8.958;2022-09-09T18:10:51;99609.91;;;19.39;72.79
17230;BME280;8731;50.364;8.958;2022-09-09T18:15:15;99606.06;;;19.31;72.35
17230;BME280;8731;50.364;8.958;2022-09-09T18:19:37;99621.31;;;19.09;70.33
17230;BME280;8731;50.364;8.958;2022-09-09T18:24:03;99628.06;;;19.23;71.74
17230;BME280;8731;50.364;8.958;2022-09-09T18:28:26;99616.25;;;19.28;73.29
17230;BME280;8731;50.364;8.958;2022-09-09T18:32:48;99617.91;;;19.10;73.16
17230;BME280;8731;50.364;8.958;2022-09-09T18:37:12;99629.94;;;19.09;72.62
17230;BME280;8731;50.364;8.958;2022-09-09T18:41:37;99633.06;;;19.20;73.51
17230;BME280;8731;50.364;8.958;2022-09-09T18:46:02;99639.72;;;18.98;73.51
17230;BME280;8731;50.364;8.958;2022-09-09T18:50:25;99641.88;;;19.07;75.00
17230;BME280;8731;50.364;8.958;2022-09-09T18:54:47;99647.13;;;19.09;74.78
17230;BME280;8731;50.364;8.958;2022-09-09T18:59:13;99654.19;;;18.95;74.37
17230;BME280;8731;50.364;8.958;2022-09-09T19:03:38;99656.19;;;19.00;74.85
17230;BME280;8731;50.364;8.958;2022-09-09T19:08:01;99663.34;;;18.90;75.80
17230;BME280;8731;50.364;8.958;2022-09-09T19:12:24;99670.31;;;18.75;74.23
17230;BME280;8731;50.364;8.958;2022-09-09T19:16:47;99670.41;;;18.76;76.25
17230;BME280;8731;50.364;8.958;2022-09-09T19:21:12;99675.25;;;18.70;74.78
17230;BME280;8731;50.364;8.958;2022-09-09T19:25:37;99679.72;;;18.58;74.37
17230;BME280;8731;50.364;8.958;2022-09-09T19:29:59;99672.78;;;18.57;75.40
17230;BME280;8731;50.364;8.958;2022-09-09T19:34:23;99683.44;;;18.63;74.44
17230;BME280;8731;50.364;8.958;2022-09-09T19:38:45;99676.25;;;18.57;74.97
17230;BME280;8731;50.364;8.958;2022-09-09T19:43:08;99676.63;;;18.32;73.84
17230;BME280;8731;50.364;8.958;2022-09-09T19:47:30;99682.72;;;18.18;76.16
17230;BME280;8731;50.364;8.958;2022-09-09T19:51:53;99684.50;;;18.19;77.12
17230;BME280;8731;50.364;8.958;2022-09-09T19:56:17;99682.75;;;18.34;78.23
17230;BME280;8731;50.364;8.958;2022-09-09T20:00:41;99689.47;;;18.16;79.74
17230;BME280;8731;50.364;8.958;2022-09-09T20:05:05;99695.19;;;18.10;78.90
17230;BME280;8731;50.364;8.958;2022-09-09T20:09:29;99704.72;;;17.97;77.91
17230;BME280;8731;50.364;8.958;2022-09-09T20:13:51;99698.78;;;17.98;78.61
17230;BME280;8731;50.364;8.958;2022-09-09T20:18:14;99702.16;;;17.97;77.84
17230;BME280;8731;50.364;8.958;2022-09-09T20:22:36;99711.63;;;17.82;79.79
17230;BME280;8731;50.364;8.958;2022-09-09T20:27:00;99703.44;;;17.74;77.39
17230;BME280;8731;50.364;8.958;2022-09-09T20:31:24;99701.47;;;17.85;79.91
17230;BME280;8731;50.364;8.958;2022-09-09T20:35:47;99705.41;;;17.78;79.67
17230;BME280;8731;50.364;8.958;2022-09-09T20:40:10;99701.84;;;17.61;79.54
17230;BME280;8731;50.364;8.958;2022-09-09T20:44:34;99710.28;;;17.44;79.58
17230;BME280;8731;50.364;8.958;2022-09-09T20:48:56;99694.41;;;17.36;78.49
17230;BME280;8731;50.364;8.958;2022-09-09T20:53:19;99703.63;;;17.33;78.54
17230;BME280;8731;50.364;8.958;2022-09-09T20:57:42;99707.81;;;17.31;76.61
17230;BME280;8731;50.364;8.958;2022-09-09T21:02:05;99711.69;;;17.24;78.36
17230;BME280;8731;50.364;8.958;2022-09-09T21:06:28;99708.22;;;17.09;76.74
17230;BME280;8731;50.364;8.958;2022-09-09T21:10:50;99715.84;;;17.07;80.39
17230;BME280;8731;50.364;8.958;2022-09-09T21:15:12;99722.59;;;17.05;80.80
17230;BME280;8731;50.364;8.958;2022-09-09T21:19:36;99723.56;;;17.22;80.33
17230;BME280;8731;50.364;8.958;2022-09-09T21:24:00;99718.88;;;17.15;82.13
17230;BME280;8731;50.364;8.958;2022-09-09T21:28:23;99722.13;;;16.98;78.58
17230;BME280;8731;50.364;8.958;2022-09-09T21:32:46;99736.03;;;17.01;81.55
17230;BME280;8731;50.364;8.958;2022-09-09T21:37:10;99752.66;;;17.06;78.08
17230;BME280;8731;50.364;8.958;2022-09-09T21:41:33;99742.38;;;17.06;78.53
17230;BME280;8731;50.364;8.958;2022-09-09T21:45:55;99749.88;;;17.03;79.60
17230;BME280;8731;50.364;8.958;2022-09-09T21:50:17;99751.13;;;16.95;79.98
17230;BME280;8731;50.364;8.958;2022-09-09T21:54:43;99754.47;;;16.94;81.21
17230;BME280;8731;50.364;8.958;2022-09-09T21:59:05;99761.38;;;16.80;81.16
17230;BME280;8731;50.364;8.958;2022-09-09T22:03:27;99761.06;;;16.76;81.31
17230;BME280;8731;50.364;8.958;2022-09-09T22:07:50;99765.88;;;16.56;79.45
17230;BME280;8731;50.364;8.958;2022-09-09T22:12:14;99766.16;;;16.48;79.84
17230;BME280;8731;50.364;8.958;2022-09-09T22:16:36;99772.56;;;16.54;83.35
17230;BME280;8731;50.364;8.958;2022-09-09T22:21:04;99757.78;;;16.37;83.18
17230;BME280;8731;50.364;8.958;2022-09-09T22:25:27;99766.28;;;16.36;82.76
17230;BME280;8731;50.364;8.958;2022-09-09T22:29:54;99765.59;;;16.39;83.99
17230;BME280;8731;50.364;8.958;2022-09-09T22:34:16;99772.03;;;16.19;81.22
17230;BME280;8731;50.364;8.958;2022-09-09T22:38:38;99765.69;;;16.27;85.55
17230;BME280;8731;50.364;8.958;2022-09-09T22:43:00;99762.75;;;16.21;85.10
17230;BME280;8731;50.364;8.958;2022-09-09T22:47:24;99767.97;;;16.22;83.68
17230;BME280;8731;50.364;8.958;2022-09-09T22:51:46;99765.81;;;16.15;81.48
17230;BME280;8731;50.364;8.958;2022-09-09T22:56:13;99760.78;;;16.17;83.14
17230;BME280;8731;50.364;8.958;2022-09-09T23:00:38;99758.41;;;16.07;80.44
17230;BME280;8731;50.364;8.958;2022-09-09T23:05:02;99765.09;;;16.31;85.28
17230;BME280;8731;50.364;8.958;2022-09-09T23:09:27;99769.56;;;16.34;85.46
17230;BME280;8731;50.364;8.958;2022-09-09T23:13:51;99769.28;;;16.16;80.86
17230;BME280;8731;50.364;8.958;2022-09-09T23:18:15;99757.19;;;16.28;83.28
17230;BME280;8731;50.364;8.958;2022-09-09T23:22:38;99760.59;;;16.14;82.83
17230;BME280;8731;50.364;8.958;2022-09-09T23:27:01;99765.13;;;16.18;83.70
17230;BME280;8731;50.364;8.958;2022-09-09T23:31:24;99771.13;;;16.05;81.82
17230;BME280;8731;50.364;8.958;2022-09-09T23:35:48;99766.09;;;15.80;83.00
17230;BME280;8731;50.364;8.958;2022-09-09T23:40:20;99765.63;;;16.12;85.36
17230;BME280;8731;50.364;8.958;2022-09-09T23:44:44;99760.50;;;15.86;84.11
17230;BME280;8731;50.364;8.958;2022-09-09T23:49:06;99755.16;;;16.09;86.55
17230;BME280;8731;50.364;8.958;2022-09-09T23:53:29;99752.88;;;16.14;85.77
17230;BME280;8731;50.364;8.958;2022-09-09T23:57:53;99749.53;;;16.15;86.75
